createdAt,value
2023-03-17T00:00:53.546Z,99.90
2023-03-17T00:03:30.701Z,99.90
2023-03-17T00:06:01.541Z,99.90
2023-03-17T00:08:36.013Z,99.90
2023-03-17T00:11:07.758Z,99.90
2023-03-17T00:13:38.899Z,99.90
2023-03-17T00:16:17.318Z,99.90
2023-03-17T00:18:51.150Z,99.90
2023-03-17T00:21:24.907Z,99.90
2023-03-17T00:23:56.365Z,99.90
2023-03-17T00:26:27.750Z,99.90
2023-03-17T00:28:58.881Z,99.90
2023-03-17T00:31:30.826Z,99.90
2023-03-17T00:34:03.147Z,99.90
2023-03-17T00:36:35.053Z,99.90
2023-03-17T00:39:12.103Z,99.90
2023-03-17T00:41:42.834Z,99.90
2023-03-17T00:44:14.564Z,99.90
2023-03-17T00:46:46.697Z,99.90
2023-03-17T00:49:22.245Z,99.90
2023-03-17T00:51:53.490Z,99.90
2023-03-17T00:54:25.616Z,99.90
2023-03-17T00:56:56.484Z,99.90
2023-03-17T00:59:35.539Z,99.90
2023-03-17T01:02:06.022Z,99.90
2023-03-17T01:04:39.830Z,99.90
2023-03-17T01:07:12.095Z,99.90
2023-03-17T01:09:44.176Z,99.90
2023-03-17T01:12:15.532Z,99.90
2023-03-17T01:14:46.643Z,99.90
2023-03-17T01:17:19.789Z,99.90
2023-03-17T01:19:51.606Z,99.90
2023-03-17T01:22:21.858Z,99.90
2023-03-17T01:24:52.963Z,99.90
2023-03-17T01:27:23.290Z,99.90
2023-03-17T01:29:55.450Z,99.90
2023-03-17T01:32:25.929Z,99.90
2023-03-17T01:34:58.131Z,99.90
2023-03-17T01:37:28.818Z,99.90
2023-03-17T01:39:59.712Z,99.90
2023-03-17T01:42:30.978Z,99.90
2023-03-17T01:45:05.796Z,99.90
2023-03-17T01:47:36.489Z,99.90
2023-03-17T01:50:12.288Z,99.90
2023-03-17T01:52:43.119Z,99.90
2023-03-17T01:55:17.473Z,99.90
2023-03-17T01:57:53.688Z,99.90
2023-03-17T02:00:26.724Z,99.90
2023-03-17T02:02:58.432Z,99.90
2023-03-17T02:05:33.137Z,99.90
2023-03-17T02:08:03.533Z,99.90
2023-03-17T02:10:34.274Z,99.90
2023-03-17T02:13:06.007Z,99.90
2023-03-17T02:15:42.660Z,99.90
2023-03-17T02:18:14.704Z,99.90
2023-03-17T02:21:39.461Z,99.90
2023-03-17T02:24:22.545Z,99.90
2023-03-17T02:26:56.888Z,99.90
2023-03-17T02:29:28.132Z,99.90
2023-03-17T02:31:59.422Z,99.90
2023-03-17T02:34:31.603Z,99.90
2023-03-17T02:37:03.762Z,99.90
2023-03-17T02:39:34.065Z,99.90
2023-03-17T02:42:05.692Z,99.90
2023-03-17T02:44:38.020Z,99.90
2023-03-17T02:47:09.850Z,99.90
2023-03-17T02:49:43.123Z,99.90
2023-03-17T02:52:15.266Z,99.90
2023-03-17T02:54:45.566Z,99.90
2023-03-17T02:57:16.884Z,99.90
2023-03-17T02:59:47.276Z,99.90
2023-03-17T03:02:18.675Z,99.90
2023-03-17T03:04:48.931Z,99.90
2023-03-17T03:07:20.972Z,99.90
2023-03-17T03:09:51.603Z,99.90
2023-03-17T03:12:22.429Z,99.90
2023-03-17T03:14:53.017Z,99.90
2023-03-17T03:17:24.099Z,99.90
2023-03-17T03:19:54.694Z,99.90
2023-03-17T03:22:27.054Z,99.90
2023-03-17T03:24:57.346Z,99.90
2023-03-17T03:27:28.136Z,99.90
2023-03-17T03:29:58.429Z,99.90
2023-03-17T03:32:29.722Z,99.90
2023-03-17T03:35:00.977Z,99.90
2023-03-17T03:37:33.736Z,99.90
2023-03-17T03:40:04.493Z,99.90
2023-03-17T03:42:35.338Z,99.90
2023-03-17T03:45:06.464Z,99.90
2023-03-17T03:47:37.304Z,99.90
2023-03-17T03:50:09.292Z,99.90
2023-03-17T03:52:41.769Z,99.90
2023-03-17T03:55:12.835Z,99.90
2023-03-17T03:57:43.614Z,99.90
2023-03-17T04:00:16.487Z,99.90
2023-03-17T04:02:47.556Z,99.90
2023-03-17T04:05:19.848Z,99.90
2023-03-17T04:07:51.937Z,99.90
2023-03-17T04:10:23.275Z,99.90
2023-03-17T04:12:54.002Z,99.90
2023-03-17T04:15:24.580Z,99.90
2023-03-17T04:17:57.092Z,99.90
2023-03-17T04:20:28.084Z,99.90
2023-03-17T04:23:00.517Z,99.90
2023-03-17T04:25:31.046Z,99.90
2023-03-17T04:28:01.907Z,99.90
2023-03-17T04:30:32.955Z,99.90
2023-03-17T04:33:03.829Z,99.90
2023-03-17T04:35:34.188Z,99.90
2023-03-17T04:38:07.080Z,99.90
2023-03-17T04:40:37.456Z,99.90
2023-03-17T04:43:09.238Z,99.90
2023-03-17T04:45:40.181Z,99.90
2023-03-17T04:48:11.220Z,99.90
2023-03-17T04:50:42.479Z,99.90
2023-03-17T04:53:14.755Z,99.90
2023-03-17T04:55:45.528Z,99.90
2023-03-17T04:58:30.052Z,99.90
2023-03-17T05:01:02.635Z,99.90
2023-03-17T05:03:33.602Z,99.90
2023-03-17T05:06:05.225Z,99.90
2023-03-17T05:08:37.297Z,99.90
2023-03-17T05:11:07.728Z,99.90
2023-03-17T05:13:38.413Z,99.90
2023-03-17T05:16:10.061Z,99.90
2023-03-17T05:18:42.089Z,99.90
2023-03-17T05:21:12.682Z,99.90
2023-03-17T05:23:44.890Z,99.90
2023-03-17T05:26:15.059Z,99.90
2023-03-17T05:28:45.694Z,99.90
2023-03-17T05:31:16.278Z,99.90
2023-03-17T05:33:49.315Z,99.90
2023-03-17T05:36:19.930Z,99.90
2023-03-17T05:38:52.546Z,99.90
2023-03-17T05:41:23.371Z,99.90
2023-03-17T05:43:54.337Z,99.90
2023-03-17T05:46:24.794Z,99.90
2023-03-17T05:48:55.605Z,99.90
2023-03-17T05:51:25.921Z,99.90
2023-03-17T05:53:58.502Z,99.90
2023-03-17T05:56:33.662Z,99.90
2023-03-17T05:59:05.573Z,99.90
2023-03-17T06:01:36.479Z,99.90
2023-03-17T06:04:08.020Z,99.90
2023-03-17T06:06:39.126Z,99.90
2023-03-17T06:09:11.296Z,99.90
2023-03-17T06:11:41.828Z,99.90
2023-03-17T06:14:13.337Z,99.90
2023-03-17T06:16:43.691Z,99.90
2023-03-17T06:19:14.568Z,99.90
2023-03-17T06:21:45.122Z,99.90
2023-03-17T06:24:17.567Z,99.90
2023-03-17T06:26:47.806Z,99.90
2023-03-17T06:29:18.711Z,99.90
2023-03-17T06:31:51.020Z,99.90
2023-03-17T06:34:23.903Z,99.90
2023-03-17T06:36:54.692Z,99.90
2023-03-17T06:39:26.968Z,99.90
2023-03-17T06:41:57.276Z,99.90
2023-03-17T06:44:28.121Z,99.90
2023-03-17T06:46:58.657Z,99.90
2023-03-17T06:49:29.532Z,99.90
2023-03-17T06:52:00.164Z,99.90
2023-03-17T06:54:33.000Z,99.90
2023-03-17T06:57:03.387Z,99.90
2023-03-17T06:59:34.094Z,99.90
2023-03-17T07:02:05.418Z,99.90
2023-03-17T07:04:38.209Z,99.90
2023-03-17T07:07:09.049Z,99.90
2023-03-17T07:09:42.049Z,99.90
2023-03-17T07:12:13.455Z,99.90
2023-03-17T07:14:44.162Z,99.90
2023-03-17T07:17:16.164Z,99.90
2023-03-17T07:19:47.147Z,99.90
2023-03-17T07:22:17.589Z,99.90
2023-03-17T07:24:49.940Z,99.90
2023-03-17T07:27:23.099Z,99.90
2023-03-17T07:29:54.425Z,99.90
2023-03-17T07:32:24.830Z,99.90
2023-03-17T07:34:55.703Z,99.90
2023-03-17T07:37:26.469Z,99.90
2023-03-17T07:39:58.705Z,99.90
2023-03-17T07:42:30.216Z,99.90
2023-03-17T07:45:01.064Z,99.90
2023-03-17T07:47:31.604Z,99.90
2023-03-17T07:50:02.533Z,99.90
2023-03-17T07:52:33.150Z,99.90
2023-03-17T07:55:08.612Z,99.90
2023-03-17T07:57:39.428Z,99.90
2023-03-17T08:00:13.828Z,99.90
2023-03-17T08:02:48.131Z,99.90
2023-03-17T08:05:22.238Z,99.90
2023-03-17T08:07:52.860Z,99.90
2023-03-17T08:10:25.209Z,99.90
2023-03-17T08:12:55.859Z,99.90
2023-03-17T08:15:27.183Z,99.90
2023-03-17T08:17:58.083Z,99.90
2023-03-17T08:20:30.076Z,99.90
2023-03-17T08:23:01.600Z,99.90
2023-03-17T08:25:34.268Z,99.90
2023-03-17T08:28:05.762Z,99.90
2023-03-17T08:30:38.155Z,99.90
2023-03-17T08:33:09.195Z,99.90
2023-03-17T08:35:43.792Z,99.90
2023-03-17T08:38:14.362Z,99.90
2023-03-17T08:40:46.363Z,99.90
2023-03-17T08:43:17.595Z,99.90
2023-03-17T08:45:48.674Z,99.90
2023-03-17T08:48:19.694Z,99.90
2023-03-17T08:50:51.393Z,99.90
2023-03-17T08:53:22.254Z,99.90
2023-03-17T08:55:58.408Z,99.90
2023-03-17T08:58:30.005Z,99.90
2023-03-17T09:01:02.615Z,99.90
2023-03-17T09:03:34.989Z,99.90
2023-03-17T09:06:07.749Z,99.90
2023-03-17T09:08:39.988Z,99.90
2023-03-17T09:11:16.796Z,99.90
2023-03-17T09:13:48.108Z,99.90
2023-03-17T09:16:19.588Z,99.90
2023-03-17T09:18:49.900Z,99.90
2023-03-17T09:21:21.459Z,99.90
2023-03-17T09:23:52.173Z,99.90
2023-03-17T09:26:25.275Z,99.90
2023-03-17T09:28:55.536Z,99.90
2023-03-17T09:31:27.305Z,99.90
2023-03-17T09:33:58.409Z,99.90
2023-03-17T09:36:29.285Z,99.90
2023-03-17T09:38:59.797Z,99.90
2023-03-17T09:42:03.112Z,99.90
2023-03-17T09:45:02.917Z,99.90
2023-03-17T09:47:57.622Z,99.90
2023-03-17T09:50:33.510Z,99.90
2023-03-17T09:53:06.492Z,99.90
2023-03-17T09:55:38.414Z,99.90
2023-03-17T09:58:13.369Z,99.90
2023-03-17T10:00:43.907Z,99.90
2023-03-17T10:03:15.210Z,99.90
2023-03-17T10:05:47.087Z,99.90
2023-03-17T10:08:31.230Z,99.90
2023-03-17T10:11:11.112Z,99.90
2023-03-17T10:13:57.621Z,99.90
2023-03-17T10:16:38.433Z,99.90
2023-03-17T10:19:23.611Z,99.90
2023-03-17T10:22:00.671Z,99.90
2023-03-17T10:24:34.180Z,99.90
2023-03-17T10:27:08.650Z,99.90
2023-03-17T10:29:41.285Z,99.90
2023-03-17T10:32:14.576Z,99.90
2023-03-17T10:34:46.262Z,99.90
2023-03-17T10:37:19.864Z,99.90
2023-03-17T10:39:53.303Z,99.90
2023-03-17T10:42:26.654Z,99.90
2023-03-17T10:45:03.294Z,99.90
2023-03-17T10:47:35.962Z,99.90
2023-03-17T10:50:23.067Z,99.90
2023-03-17T10:53:00.769Z,99.90
2023-03-17T10:55:35.445Z,99.90
2023-03-17T10:58:09.450Z,99.90
2023-03-17T11:00:51.225Z,99.90
2023-03-17T11:03:27.319Z,99.90
2023-03-17T11:06:02.711Z,99.90
2023-03-17T11:08:35.705Z,99.90
2023-03-17T11:11:08.872Z,99.90
2023-03-17T11:13:39.545Z,99.90
2023-03-17T11:16:23.502Z,99.90
2023-03-17T11:18:56.751Z,99.90
2023-03-17T11:21:31.673Z,99.90
2023-03-17T11:24:10.651Z,99.10
2023-03-17T11:26:57.773Z,99.90
2023-03-17T11:29:50.400Z,99.70
2023-03-17T11:32:33.438Z,99.90
2023-03-17T11:35:36.000Z,99.90
2023-03-17T11:38:26.102Z,99.80
2023-03-17T11:41:37.152Z,99.60
2023-03-17T11:44:39.057Z,99.90
2023-03-17T11:47:24.285Z,99.90
2023-03-17T11:50:12.355Z,99.50
2023-03-17T11:53:00.222Z,99.40
2023-03-17T11:55:40.897Z,99.50
2023-03-17T11:58:18.815Z,98.80
2023-03-17T12:00:57.206Z,98.20
2023-03-17T12:03:36.113Z,97.90
2023-03-17T12:06:18.089Z,99.80
2023-03-17T12:08:56.747Z,98.20
2023-03-17T12:11:32.254Z,99.90
2023-03-17T12:14:07.536Z,99.10
2023-03-17T12:16:46.043Z,98.50
2023-03-17T12:19:23.079Z,98.50
2023-03-17T12:22:00.575Z,98.50
2023-03-17T12:24:40.138Z,97.50
2023-03-17T12:27:17.405Z,98.20
2023-03-17T12:29:53.617Z,98.00
2023-03-17T12:32:30.898Z,97.50
2023-03-17T12:35:11.255Z,98.30
2023-03-17T12:37:44.184Z,98.00
2023-03-17T12:40:20.429Z,96.60
2023-03-17T12:42:54.842Z,96.70
2023-03-17T12:45:53.264Z,96.80
2023-03-17T12:49:17.773Z,96.60
2023-03-17T12:52:20.888Z,96.20
2023-03-17T12:54:54.332Z,97.50
2023-03-17T12:57:31.130Z,96.10
2023-03-17T13:00:09.140Z,95.60
2023-03-17T13:02:41.526Z,96.10
2023-03-17T13:05:18.805Z,95.30
2023-03-17T13:07:54.003Z,96.60
2023-03-17T13:10:42.809Z,96.10
2023-03-17T13:13:37.881Z,95.80
2023-03-17T13:16:30.083Z,95.60
2023-03-17T13:19:24.324Z,95.50
2023-03-17T13:22:35.807Z,95.40
2023-03-17T13:25:32.415Z,94.50
2023-03-17T13:31:30.870Z,95.70
2023-03-17T13:34:16.398Z,95.70
2023-03-17T13:36:58.103Z,95.30
2023-03-17T13:40:08.364Z,94.90
2023-03-17T13:43:05.008Z,93.70
2023-03-17T13:45:41.533Z,95.70
2023-03-17T13:48:36.487Z,94.10
2023-03-17T13:51:21.309Z,93.80
2023-03-17T13:53:56.726Z,95.40
2023-03-17T13:56:47.210Z,94.90
2023-03-17T13:59:20.020Z,94.20
2023-03-17T14:01:57.814Z,93.80
2023-03-17T14:04:37.578Z,94.10
2023-03-17T14:07:18.542Z,93.70
2023-03-17T14:09:53.544Z,93.30
2023-03-17T14:12:34.528Z,93.30
2023-03-17T14:15:09.373Z,93.60
2023-03-17T14:17:46.763Z,92.90
2023-03-17T14:20:28.012Z,93.00
2023-03-17T14:23:01.975Z,93.00
2023-03-17T14:25:36.248Z,93.00
2023-03-17T14:28:13.309Z,92.50
2023-03-17T14:30:54.501Z,91.10
2023-03-17T14:33:27.686Z,91.00
2023-03-17T14:36:03.438Z,92.00
2023-03-17T14:38:36.670Z,91.10
2023-03-17T14:41:17.120Z,90.60
2023-03-17T14:43:48.600Z,86.40
2023-03-17T14:46:23.999Z,85.60
2023-03-17T14:49:01.282Z,86.40
2023-03-17T14:51:37.156Z,85.00
2023-03-17T14:54:16.264Z,85.10
2023-03-17T14:56:52.470Z,84.80
2023-03-17T14:59:28.080Z,81.90
2023-03-17T15:02:00.996Z,85.00
2023-03-17T15:04:34.220Z,84.70
2023-03-17T15:07:08.902Z,83.20
2023-03-17T15:09:41.374Z,84.00
2023-03-17T15:12:20.278Z,85.00
2023-03-17T15:14:54.367Z,85.50
2023-03-17T15:17:30.228Z,84.30
2023-03-17T15:20:05.941Z,85.40
2023-03-17T15:22:48.599Z,84.20
2023-03-17T15:25:28.429Z,83.20
2023-03-17T15:27:59.702Z,84.80
2023-03-17T15:30:44.261Z,85.10
2023-03-17T15:33:23.459Z,84.10
2023-03-17T15:35:54.355Z,86.40
2023-03-17T15:38:27.155Z,87.60
2023-03-17T15:40:58.146Z,88.10
2023-03-17T15:43:28.763Z,88.80
2023-03-17T15:46:04.554Z,89.10
2023-03-17T15:48:38.240Z,89.60
2023-03-17T15:51:09.340Z,89.50
2023-03-17T15:53:41.298Z,88.70
2023-03-17T15:56:19.136Z,89.40
2023-03-17T15:58:52.557Z,89.00
2023-03-17T16:01:25.755Z,90.40
2023-03-17T16:03:58.287Z,91.70
2023-03-17T16:06:29.098Z,91.10
2023-03-17T16:09:00.962Z,91.30
2023-03-17T16:11:33.306Z,91.80
2023-03-17T16:14:03.674Z,92.60
2023-03-17T16:16:38.820Z,92.00
2023-03-17T16:19:16.560Z,92.10
2023-03-17T16:21:47.351Z,92.00
2023-03-17T16:24:22.997Z,92.50
2023-03-17T16:26:54.413Z,92.90
2023-03-17T16:29:24.725Z,93.10
2023-03-17T16:31:55.610Z,93.30
2023-03-17T16:34:26.676Z,93.60
2023-03-17T16:36:57.423Z,93.20
2023-03-17T16:39:29.326Z,93.50
2023-03-17T16:42:02.392Z,93.70
2023-03-17T16:44:33.497Z,94.20
2023-03-17T16:47:04.257Z,94.30
2023-03-17T16:49:37.655Z,94.50
2023-03-17T16:52:09.338Z,94.90
2023-03-17T16:54:41.422Z,94.70
2023-03-17T16:57:14.559Z,94.80
2023-03-17T16:59:45.048Z,94.30
2023-03-17T17:02:18.071Z,94.90
2023-03-17T17:04:49.093Z,94.90
2023-03-17T17:07:20.219Z,95.00
2023-03-17T17:09:52.369Z,94.60
2023-03-17T17:12:23.953Z,95.00
2023-03-17T17:14:55.210Z,94.90
2023-03-17T17:17:26.076Z,95.00
2023-03-17T17:19:57.056Z,95.00
2023-03-17T17:22:28.741Z,95.40
2023-03-17T17:25:00.749Z,95.80
2023-03-17T17:27:32.052Z,95.70
2023-03-17T17:30:03.813Z,95.80
2023-03-17T17:32:35.640Z,96.10
2023-03-17T17:35:07.834Z,96.00
2023-03-17T17:37:39.940Z,96.50
2023-03-17T17:40:17.563Z,96.40
2023-03-17T17:42:48.812Z,96.60
2023-03-17T17:45:20.687Z,97.20
2023-03-17T17:47:52.348Z,97.60
2023-03-17T17:50:27.848Z,97.40
2023-03-17T17:53:05.348Z,97.20
2023-03-17T17:55:37.218Z,97.70
2023-03-17T17:58:08.734Z,97.70
2023-03-17T18:00:40.175Z,98.10
2023-03-17T18:03:12.116Z,98.30
2023-03-17T18:05:42.795Z,98.40
2023-03-17T18:08:16.702Z,98.50
2023-03-17T18:10:51.415Z,98.80
2023-03-17T18:13:23.062Z,98.80
2023-03-17T18:15:54.125Z,99.00
2023-03-17T18:18:25.015Z,99.10
2023-03-17T18:20:56.898Z,99.30
2023-03-17T18:23:28.940Z,99.30
2023-03-17T18:26:06.198Z,99.20
2023-03-17T18:28:37.257Z,99.20
2023-03-17T18:31:13.091Z,99.50
2023-03-17T18:33:47.258Z,99.40
2023-03-17T18:36:18.168Z,99.50
2023-03-17T18:38:49.617Z,99.70
2023-03-17T18:41:21.593Z,99.90
2023-03-17T18:43:52.653Z,99.80
2023-03-17T18:46:23.161Z,99.90
2023-03-17T18:48:54.090Z,99.90
2023-03-17T18:51:24.577Z,99.90
2023-03-17T18:53:56.019Z,99.90
2023-03-17T18:56:29.465Z,99.90
2023-03-17T18:59:01.563Z,99.90
2023-03-17T19:01:31.974Z,99.90
2023-03-17T19:04:04.087Z,99.90
2023-03-17T19:06:35.574Z,99.90
2023-03-17T19:09:06.600Z,99.90
2023-03-17T19:11:39.894Z,99.90
2023-03-17T19:14:11.937Z,99.90
2023-03-17T19:16:43.405Z,99.90
2023-03-17T19:19:13.968Z,99.90
2023-03-17T19:21:44.414Z,99.90
2023-03-17T19:24:15.845Z,99.90
2023-03-17T19:26:47.800Z,99.90
2023-03-17T19:29:18.405Z,99.90
2023-03-17T19:31:49.213Z,99.90
2023-03-17T19:34:20.186Z,99.90
2023-03-17T19:36:51.446Z,99.90
2023-03-17T19:39:22.405Z,99.90
2023-03-17T19:41:55.381Z,99.90
2023-03-17T19:44:26.643Z,99.90
2023-03-17T19:46:57.365Z,99.90
2023-03-17T19:49:28.878Z,99.90
2023-03-17T19:52:00.596Z,99.90
2023-03-17T19:54:33.853Z,99.90
2023-03-17T19:57:06.923Z,99.90
2023-03-17T19:59:37.819Z,99.90
2023-03-17T20:02:09.289Z,99.90
2023-03-17T20:04:40.892Z,99.90
2023-03-17T20:07:12.247Z,99.90
2023-03-17T20:09:45.018Z,99.90
2023-03-17T20:12:17.431Z,99.90
2023-03-17T20:14:49.002Z,99.90
2023-03-17T20:17:21.447Z,99.90
2023-03-17T20:19:52.038Z,99.90
2023-03-17T20:22:22.578Z,99.90
2023-03-17T20:24:53.338Z,99.90
2023-03-17T20:27:25.497Z,99.90
2023-03-17T20:29:57.200Z,99.90
2023-03-17T20:32:27.877Z,99.90
2023-03-17T20:34:58.923Z,99.90
2023-03-17T20:37:29.618Z,99.90
2023-03-17T20:40:02.899Z,99.90
2023-03-17T20:42:35.357Z,99.90
2023-03-17T20:45:07.645Z,99.90
2023-03-17T20:47:38.580Z,99.90
2023-03-17T20:50:13.818Z,99.90
2023-03-17T20:52:45.278Z,99.90
2023-03-17T20:55:17.524Z,99.90
2023-03-17T20:57:51.057Z,99.90
2023-03-17T21:00:23.452Z,99.90
2023-03-17T21:02:54.475Z,99.90
2023-03-17T21:05:28.570Z,99.90
2023-03-17T21:07:59.283Z,99.90
2023-03-17T21:10:30.850Z,99.90
2023-03-17T21:13:03.039Z,99.90
2023-03-17T21:15:34.017Z,99.90
2023-03-17T21:18:04.475Z,99.90
2023-03-17T21:20:35.944Z,99.90
2023-03-17T21:23:08.065Z,99.90
2023-03-17T21:25:39.517Z,99.90
2023-03-17T21:28:13.784Z,99.90
2023-03-17T21:30:46.553Z,99.90
2023-03-17T21:33:17.432Z,99.90
2023-03-17T21:35:49.400Z,99.90
2023-03-17T21:38:20.809Z,99.90
2023-03-17T21:40:52.103Z,99.90
2023-03-17T21:43:24.541Z,99.90
2023-03-17T21:45:56.310Z,99.90
2023-03-17T21:48:27.868Z,99.90
2023-03-17T21:50:59.374Z,99.90
2023-03-17T21:53:30.580Z,99.90
2023-03-17T21:56:01.343Z,99.90
2023-03-17T21:58:33.461Z,99.90
2023-03-17T22:01:04.269Z,99.90
2023-03-17T22:03:34.922Z,99.90
2023-03-17T22:06:06.550Z,99.90
2023-03-17T22:08:37.123Z,99.90
2023-03-17T22:11:11.930Z,99.90
2023-03-17T22:13:44.014Z,99.90
2023-03-17T22:16:16.192Z,99.90
2023-03-17T22:18:47.564Z,99.90
2023-03-17T22:21:18.252Z,99.90
2023-03-17T22:23:49.100Z,99.90
2023-03-17T22:26:22.946Z,99.90
2023-03-17T22:28:54.305Z,99.90
2023-03-17T22:31:27.359Z,99.90
2023-03-17T22:34:01.210Z,99.90
2023-03-17T22:36:32.690Z,99.90
2023-03-17T22:39:03.349Z,99.90
2023-03-17T22:41:34.174Z,99.90
2023-03-17T22:44:06.365Z,99.90
2023-03-17T22:46:37.152Z,99.90
2023-03-17T22:49:07.962Z,99.90
2023-03-17T22:51:41.068Z,99.90
2023-03-17T22:54:11.805Z,99.90
2023-03-17T22:56:43.097Z,99.90
2023-03-17T22:59:14.818Z,99.90
2023-03-17T23:01:46.016Z,99.90
2023-03-17T23:04:16.889Z,99.90
2023-03-17T23:06:47.849Z,99.90
2023-03-17T23:09:18.890Z,99.90
2023-03-17T23:11:49.693Z,99.90
2023-03-17T23:14:21.493Z,99.90
2023-03-17T23:16:52.205Z,99.90
2023-03-17T23:19:22.477Z,99.90
2023-03-17T23:21:53.146Z,99.90
2023-03-17T23:24:23.627Z,99.90
2023-03-17T23:26:54.734Z,99.90
2023-03-17T23:29:27.450Z,99.90
2023-03-17T23:31:58.807Z,99.90
2023-03-17T23:34:29.870Z,99.90
2023-03-17T23:37:01.052Z,99.90
2023-03-17T23:39:31.419Z,99.90
2023-03-17T23:42:04.220Z,99.90
2023-03-17T23:44:36.016Z,99.90
2023-03-17T23:47:07.512Z,99.90
2023-03-17T23:49:38.322Z,99.90
2023-03-17T23:52:09.230Z,99.90
2023-03-17T23:54:39.657Z,99.90
2023-03-17T23:57:11.048Z,99.90
2023-03-17T23:59:43.446Z,99.90
